Terminal Aerodrome Forecast
Issued by NWS

Home | Current Version | Previous Version | Text Only | Print | Product List | Glossary On
Versions: 1 2 3 4 5 6 7 8 9 10 11 12 13 14 15 16 17 18 19 20
000
FTUS42 KGSP 260548 CCA
TAFAND
TAF COR
KAND 260548Z 2606/2706 31005KT P6SM -RA OVC050
      TEMPO 2606/2608 4SM RA BR SCT025 OVC040
     FM260800 31006KT 3SM -RA BR OVC027
     FM261000 31005KT 4SM -RA BR OVC015
     FM261300 28007KT P6SM -RA OVC045
     FM261600 28009KT P6SM BKN160=

USA.gov is the U.S. government's official web portal to all federal, state and local government web resources and services.